sensor_id;sensor_type;location;lat;lon;timestamp;pressure;altitude;pressure_sealevel;temperature;humidity
64095;BME280;50353;51.420;5.682;2024-01-25T00:01:41;102547.13;;;8.68;100.00
64095;BME280;50353;51.420;5.682;2024-01-25T00:04:06;102549.53;;;8.77;100.00
64095;BME280;50353;51.420;5.682;2024-01-25T00:06:31;102547.13;;;8.68;100.00
64095;BME280;50353;51.420;5.682;2024-01-25T00:08:57;102568.00;;;8.77;100.00
64095;BME280;50353;51.420;5.682;2024-01-25T00:11:22;102575.22;;;8.69;100.00
64095;BME280;50353;51.420;5.682;2024-01-25T00:13:47;102578.53;;;8.77;100.00
64095;BME280;50353;51.420;5.682;2024-01-25T00:16:13;102564.03;;;8.59;100.00
64095;BME280;50353;51.420;5.682;2024-01-25T00:18:38;102578.06;;;8.60;100.00
64095;BME280;50353;51.420;5.682;2024-01-25T00:21:04;102577.72;;;8.36;100.00
64095;BME280;50353;51.420;5.682;2024-01-25T00:23:29;102593.13;;;8.55;100.00
64095;BME280;50353;51.420;5.682;2024-01-25T00:25:55;102585.25;;;8.53;100.00
64095;BME280;50353;51.420;5.682;2024-01-25T00:28:24;102577.56;;;8.44;100.00
64095;BME280;50353;51.420;5.682;2024-01-25T00:30:49;102574.63;;;8.17;100.00
64095;BME280;50353;51.420;5.682;2024-01-25T00:33:15;102573.69;;;8.60;100.00
64095;BME280;50353;51.420;5.682;2024-01-25T00:35:40;102573.53;;;8.26;100.00
64095;BME280;50353;51.420;5.682;2024-01-25T00:38:06;102568.75;;;8.43;100.00
64095;BME280;50353;51.420;5.682;2024-01-25T00:40:32;102573.34;;;8.35;100.00
64095;BME280;50353;51.420;5.682;2024-01-25T00:42:57;102561.72;;;8.45;100.00
64095;BME280;50353;51.420;5.682;2024-01-25T00:45:23;102587.28;;;8.40;100.00
64095;BME280;50353;51.420;5.682;2024-01-25T00:47:50;102583.19;;;8.27;100.00
64095;BME280;50353;51.420;5.682;2024-01-25T00:50:16;102574.59;;;8.19;100.00
64095;BME280;50353;51.420;5.682;2024-01-25T00:52:50;102584.66;;;8.00;100.00
64095;BME280;50353;51.420;5.682;2024-01-25T00:55:15;102580.84;;;8.15;100.00
64095;BME280;50353;51.420;5.682;2024-01-25T00:57:41;102579.94;;;8.16;100.00
64095;BME280;50353;51.420;5.682;2024-01-25T01:00:07;102569.22;;;8.23;100.00
64095;BME280;50353;51.420;5.682;2024-01-25T01:02:38;102566.56;;;8.23;100.00
64095;BME280;50353;51.420;5.682;2024-01-25T01:05:05;102567.34;;;7.88;100.00
64095;BME280;50353;51.420;5.682;2024-01-25T01:07:31;102569.22;;;7.81;100.00
64095;BME280;50353;51.420;5.682;2024-01-25T01:09:56;102564.22;;;7.69;100.00
64095;BME280;50353;51.420;5.682;2024-01-25T01:12:21;102586.03;;;7.75;100.00
64095;BME280;50353;51.420;5.682;2024-01-25T01:14:47;102581.09;;;8.02;100.00
64095;BME280;50353;51.420;5.682;2024-01-25T01:17:13;102570.19;;;7.78;100.00
64095;BME280;50353;51.420;5.682;2024-01-25T01:19:38;102572.16;;;7.67;100.00
64095;BME280;50353;51.420;5.682;2024-01-25T01:22:04;102579.69;;;7.86;100.00
64095;BME280;50353;51.420;5.682;2024-01-25T01:24:29;102574.16;;;7.56;100.00
64095;BME280;50353;51.420;5.682;2024-01-25T01:26:54;102570.47;;;7.63;100.00
64095;BME280;50353;51.420;5.682;2024-01-25T01:29:20;102599.19;;;7.75;100.00
64095;BME280;50353;51.420;5.682;2024-01-25T01:31:45;102594.16;;;7.63;100.00
64095;BME280;50353;51.420;5.682;2024-01-25T01:34:11;102592.97;;;7.34;100.00
64095;BME280;50353;51.420;5.682;2024-01-25T01:36:38;102607.66;;;7.46;100.00
64095;BME280;50353;51.420;5.682;2024-01-25T01:39:03;102607.72;;;7.41;100.00
64095;BME280;50353;51.420;5.682;2024-01-25T01:41:28;102591.16;;;7.38;100.00
64095;BME280;50353;51.420;5.682;2024-01-25T01:43:54;102595.31;;;7.48;100.00
64095;BME280;50353;51.420;5.682;2024-01-25T01:46:36;102608.59;;;7.43;100.00
64095;BME280;50353;51.420;5.682;2024-01-25T01:49:12;102612.69;;;7.58;100.00
64095;BME280;50353;51.420;5.682;2024-01-25T01:51:40;102619.91;;;6.97;100.00
64095;BME280;50353;51.420;5.682;2024-01-25T01:54:07;102633.81;;;7.04;100.00
64095;BME280;50353;51.420;5.682;2024-01-25T01:56:33;102636.09;;;7.24;100.00
64095;BME280;50353;51.420;5.682;2024-01-25T01:59:04;102629.38;;;7.06;100.00
64095;BME280;50353;51.420;5.682;2024-01-25T02:01:29;102626.50;;;6.65;100.00
64095;BME280;50353;51.420;5.682;2024-01-25T02:03:55;102636.28;;;6.55;100.00
64095;BME280;50353;51.420;5.682;2024-01-25T02:06:22;102631.78;;;6.65;100.00
64095;BME280;50353;51.420;5.682;2024-01-25T02:08:48;102638.63;;;6.75;100.00
64095;BME280;50353;51.420;5.682;2024-01-25T02:11:16;102646.03;;;6.49;100.00
64095;BME280;50353;51.420;5.682;2024-01-25T02:13:41;102655.00;;;6.32;100.00
64095;BME280;50353;51.420;5.682;2024-01-25T02:16:07;102660.19;;;6.38;100.00
64095;BME280;50353;51.420;5.682;2024-01-25T02:18:33;102653.25;;;6.34;100.00
64095;BME280;50353;51.420;5.682;2024-01-25T02:20:59;102656.66;;;6.38;100.00
64095;BME280;50353;51.420;5.682;2024-01-25T02:23:24;102662.84;;;6.34;100.00
64095;BME280;50353;51.420;5.682;2024-01-25T02:25:50;102664.50;;;6.42;100.00
64095;BME280;50353;51.420;5.682;2024-01-25T02:28:15;102666.38;;;6.31;100.00
64095;BME280;50353;51.420;5.682;2024-01-25T02:30:40;102668.09;;;6.37;100.00
64095;BME280;50353;51.420;5.682;2024-01-25T02:33:06;102669.53;;;6.59;100.00
64095;BME280;50353;51.420;5.682;2024-01-25T02:35:32;102674.41;;;6.84;100.00
64095;BME280;50353;51.420;5.682;2024-01-25T02:37:57;102670.38;;;6.62;100.00
64095;BME280;50353;51.420;5.682;2024-01-25T02:40:23;102671.53;;;6.40;100.00
64095;BME280;50353;51.420;5.682;2024-01-25T02:42:48;102675.09;;;6.36;100.00
64095;BME280;50353;51.420;5.682;2024-01-25T02:45:14;102674.91;;;6.52;100.00
64095;BME280;50353;51.420;5.682;2024-01-25T02:47:39;102670.78;;;6.31;100.00
64095;BME280;50353;51.420;5.682;2024-01-25T02:50:05;102662.63;;;6.52;100.00
64095;BME280;50353;51.420;5.682;2024-01-25T02:52:30;102654.47;;;6.69;100.00
64095;BME280;50353;51.420;5.682;2024-01-25T02:54:56;102662.72;;;6.45;100.00
64095;BME280;50353;51.420;5.682;2024-01-25T02:57:21;102661.59;;;6.61;100.00
64095;BME280;50353;51.420;5.682;2024-01-25T02:59:47;102656.47;;;6.55;100.00
64095;BME280;50353;51.420;5.682;2024-01-25T03:02:12;102652.19;;;6.48;100.00
64095;BME280;50353;51.420;5.682;2024-01-25T03:04:37;102653.75;;;6.59;100.00
64095;BME280;50353;51.420;5.682;2024-01-25T03:07:03;102653.69;;;6.66;100.00
64095;BME280;50353;51.420;5.682;2024-01-25T03:09:28;102658.44;;;6.37;100.00
64095;BME280;50353;51.420;5.682;2024-01-25T03:11:54;102659.28;;;6.41;100.00
64095;BME280;50353;51.420;5.682;2024-01-25T03:14:19;102646.03;;;6.47;100.00
64095;BME280;50353;51.420;5.682;2024-01-25T03:16:44;102671.19;;;6.65;100.00
64095;BME280;50353;51.420;5.682;2024-01-25T03:19:10;102677.63;;;6.44;100.00
64095;BME280;50353;51.420;5.682;2024-01-25T03:21:36;102672.72;;;6.18;100.00
64095;BME280;50353;51.420;5.682;2024-01-25T03:24:01;102674.09;;;6.47;100.00
64095;BME280;50353;51.420;5.682;2024-01-25T03:26:27;102665.38;;;6.41;100.00
64095;BME280;50353;51.420;5.682;2024-01-25T03:28:53;102677.53;;;6.52;100.00
64095;BME280;50353;51.420;5.682;2024-01-25T03:31:18;102679.34;;;6.47;100.00
64095;BME280;50353;51.420;5.682;2024-01-25T03:33:43;102670.41;;;5.85;100.00
64095;BME280;50353;51.420;5.682;2024-01-25T03:36:09;102680.66;;;6.10;100.00
64095;BME280;50353;51.420;5.682;2024-01-25T03:38:34;102681.66;;;6.01;100.00
64095;BME280;50353;51.420;5.682;2024-01-25T03:40:59;102676.59;;;5.80;100.00
64095;BME280;50353;51.420;5.682;2024-01-25T03:43:25;102671.47;;;5.64;100.00
64095;BME280;50353;51.420;5.682;2024-01-25T03:45:51;102684.69;;;5.58;100.00
64095;BME280;50353;51.420;5.682;2024-01-25T03:48:16;102681.09;;;5.65;100.00
64095;BME280;50353;51.420;5.682;2024-01-25T03:50:42;102679.25;;;5.78;100.00
64095;BME280;50353;51.420;5.682;2024-01-25T03:53:07;102685.63;;;5.51;100.00
64095;BME280;50353;51.420;5.682;2024-01-25T03:55:33;102685.91;;;5.15;100.00
64095;BME280;50353;51.420;5.682;2024-01-25T03:57:58;102698.03;;;5.29;100.00
64095;BME280;50353;51.420;5.682;2024-01-25T04:00:24;102696.25;;;5.34;100.00
64095;BME280;50353;51.420;5.682;2024-01-25T04:02:50;102689.94;;;5.58;100.00
64095;BME280;50353;51.420;5.682;2024-01-25T04:05:15;102694.00;;;5.87;100.00
64095;BME280;50353;51.420;5.682;2024-01-25T04:07:41;102695.00;;;5.73;100.00
64095;BME280;50353;51.420;5.682;2024-01-25T04:10:06;102695.19;;;5.53;100.00
64095;BME280;50353;51.420;5.682;2024-01-25T04:12:32;102683.13;;;5.35;100.00
64095;BME280;50353;51.420;5.682;2024-01-25T04:14:58;102697.00;;;5.47;100.00
64095;BME280;50353;51.420;5.682;2024-01-25T04:17:23;102692.44;;;5.70;100.00
64095;BME280;50353;51.420;5.682;2024-01-25T04:19:49;102704.69;;;5.67;100.00
64095;BME280;50353;51.420;5.682;2024-01-25T04:22:14;102703.81;;;5.68;100.00
64095;BME280;50353;51.420;5.682;2024-01-25T04:24:40;102687.28;;;5.59;100.00
64095;BME280;50353;51.420;5.682;2024-01-25T04:27:05;102696.78;;;5.73;100.00
64095;BME280;50353;51.420;5.682;2024-01-25T04:29:31;102692.34;;;5.76;100.00
64095;BME280;50353;51.420;5.682;2024-01-25T04:31:56;102695.06;;;5.70;100.00
64095;BME280;50353;51.420;5.682;2024-01-25T04:34:21;102692.50;;;5.61;100.00
64095;BME280;50353;51.420;5.682;2024-01-25T04:36:47;102684.78;;;5.47;100.00
64095;BME280;50353;51.420;5.682;2024-01-25T04:39:12;102673.28;;;5.57;100.00
64095;BME280;50353;51.420;5.682;2024-01-25T04:41:38;102676.88;;;5.49;100.00
64095;BME280;50353;51.420;5.682;2024-01-25T04:44:03;102684.75;;;5.49;100.00
64095;BME280;50353;51.420;5.682;2024-01-25T04:46:29;102676.44;;;4.96;100.00
64095;BME280;50353;51.420;5.682;2024-01-25T04:49:00;102667.72;;;4.95;100.00
64095;BME280;50353;51.420;5.682;2024-01-25T04:51:25;102684.28;;;4.99;100.00
64095;BME280;50353;51.420;5.682;2024-01-25T04:53:51;102685.13;;;5.02;100.00
64095;BME280;50353;51.420;5.682;2024-01-25T04:56:16;102687.56;;;5.27;100.00
64095;BME280;50353;51.420;5.682;2024-01-25T04:58:41;102680.50;;;5.35;100.00
64095;BME280;50353;51.420;5.682;2024-01-25T05:01:07;102675.09;;;5.54;100.00
64095;BME280;50353;51.420;5.682;2024-01-25T05:03:32;102667.38;;;5.40;100.00
64095;BME280;50353;51.420;5.682;2024-01-25T05:05:58;102674.56;;;5.15;100.00
64095;BME280;50353;51.420;5.682;2024-01-25T05:08:23;102671.88;;;5.24;100.00
64095;BME280;50353;51.420;5.682;2024-01-25T05:10:48;102661.34;;;5.27;100.00
64095;BME280;50353;51.420;5.682;2024-01-25T05:13:14;102678.81;;;5.30;100.00
64095;BME280;50353;51.420;5.682;2024-01-25T05:15:39;102669.53;;;4.81;100.00
64095;BME280;50353;51.420;5.682;2024-01-25T05:18:06;102685.13;;;5.04;100.00
64095;BME280;50353;51.420;5.682;2024-01-25T05:20:31;102675.53;;;5.01;100.00
64095;BME280;50353;51.420;5.682;2024-01-25T05:22:58;102673.66;;;5.19;100.00
64095;BME280;50353;51.420;5.682;2024-01-25T05:25:24;102670.19;;;5.17;100.00
64095;BME280;50353;51.420;5.682;2024-01-25T05:27:51;102673.53;;;5.31;100.00
64095;BME280;50353;51.420;5.682;2024-01-25T05:30:16;102673.63;;;5.22;100.00
64095;BME280;50353;51.420;5.682;2024-01-25T05:32:42;102669.47;;;4.91;100.00
64095;BME280;50353;51.420;5.682;2024-01-25T05:35:08;102661.84;;;4.54;100.00
64095;BME280;50353;51.420;5.682;2024-01-25T05:37:33;102675.75;;;4.64;100.00
64095;BME280;50353;51.420;5.682;2024-01-25T05:39:59;102681.72;;;4.88;100.00
64095;BME280;50353;51.420;5.682;2024-01-25T05:42:24;102692.03;;;5.14;100.00
64095;BME280;50353;51.420;5.682;2024-01-25T05:44:49;102692.81;;;5.27;100.00
64095;BME280;50353;51.420;5.682;2024-01-25T05:47:16;102690.22;;;5.19;100.00
64095;BME280;50353;51.420;5.682;2024-01-25T05:49:41;102689.44;;;5.10;100.00
64095;BME280;50353;51.420;5.682;2024-01-25T05:52:06;102691.13;;;5.18;100.00
64095;BME280;50353;51.420;5.682;2024-01-25T05:54:32;102693.84;;;5.03;100.00
64095;BME280;50353;51.420;5.682;2024-01-25T05:56:57;102702.66;;;4.96;100.00
64095;BME280;50353;51.420;5.682;2024-01-25T05:59:22;102704.34;;;5.06;100.00
64095;BME280;50353;51.420;5.682;2024-01-25T06:01:48;102700.16;;;4.79;100.00
64095;BME280;50353;51.420;5.682;2024-01-25T06:04:13;102708.91;;;4.71;100.00
64095;BME280;50353;51.420;5.682;2024-01-25T06:06:38;102710.50;;;4.96;100.00
64095;BME280;50353;51.420;5.682;2024-01-25T06:09:04;102708.59;;;5.21;100.00
64095;BME280;50353;51.420;5.682;2024-01-25T06:11:30;102714.13;;;4.74;100.00
64095;BME280;50353;51.420;5.682;2024-01-25T06:13:56;102716.81;;;4.65;100.00
64095;BME280;50353;51.420;5.682;2024-01-25T06:16:22;102712.41;;;4.70;100.00
64095;BME280;50353;51.420;5.682;2024-01-25T06:18:47;102703.75;;;4.54;100.00
64095;BME280;50353;51.420;5.682;2024-01-25T06:21:12;102713.38;;;4.49;100.00
64095;BME280;50353;51.420;5.682;2024-01-25T06:23:38;102705.53;;;4.42;100.00
64095;BME280;50353;51.420;5.682;2024-01-25T06:26:04;102716.06;;;4.31;100.00
64095;BME280;50353;51.420;5.682;2024-01-25T06:28:29;102715.09;;;4.56;100.00
64095;BME280;50353;51.420;5.682;2024-01-25T06:30:55;102715.09;;;4.53;100.00
64095;BME280;50353;51.420;5.682;2024-01-25T06:33:20;102719.53;;;4.42;100.00
64095;BME280;50353;51.420;5.682;2024-01-25T06:35:45;102706.38;;;4.48;100.00
64095;BME280;50353;51.420;5.682;2024-01-25T06:38:11;102721.03;;;4.89;100.00
64095;BME280;50353;51.420;5.682;2024-01-25T06:40:37;102715.97;;;4.51;100.00
64095;BME280;50353;51.420;5.682;2024-01-25T06:43:03;102737.88;;;4.33;100.00
64095;BME280;50353;51.420;5.682;2024-01-25T06:45:29;102733.56;;;4.18;100.00
64095;BME280;50353;51.420;5.682;2024-01-25T06:47:54;102727.47;;;4.11;100.00
64095;BME280;50353;51.420;5.682;2024-01-25T06:50:20;102726.63;;;4.11;100.00
64095;BME280;50353;51.420;5.682;2024-01-25T06:52:45;102744.03;;;4.10;100.00
64095;BME280;50353;51.420;5.682;2024-01-25T06:55:11;102744.06;;;4.04;100.00
64095;BME280;50353;51.420;5.682;2024-01-25T06:57:37;102717.09;;;3.71;100.00
64095;BME280;50353;51.420;5.682;2024-01-25T07:00:03;102726.69;;;3.67;100.00
64095;BME280;50353;51.420;5.682;2024-01-25T07:02:29;102723.19;;;3.59;100.00
64095;BME280;50353;51.420;5.682;2024-01-25T07:04:55;102734.53;;;3.67;100.00
64095;BME280;50353;51.420;5.682;2024-01-25T07:07:21;102744.97;;;3.77;100.00
64095;BME280;50353;51.420;5.682;2024-01-25T07:09:46;102738.84;;;3.87;100.00
64095;BME280;50353;51.420;5.682;2024-01-25T07:12:11;102735.38;;;3.69;100.00
64095;BME280;50353;51.420;5.682;2024-01-25T07:14:37;102714.47;;;3.65;100.00
64095;BME280;50353;51.420;5.682;2024-01-25T07:17:02;102728.44;;;3.59;100.00
64095;BME280;50353;51.420;5.682;2024-01-25T07:19:27;102722.31;;;3.54;100.00
64095;BME280;50353;51.420;5.682;2024-01-25T07:21:53;102736.25;;;3.64;100.00
64095;BME280;50353;51.420;5.682;2024-01-25T07:24:18;102726.69;;;3.49;100.00
64095;BME280;50353;51.420;5.682;2024-01-25T07:26:44;102710.97;;;3.07;100.00
64095;BME280;50353;51.420;5.682;2024-01-25T07:29:09;102728.44;;;3.22;100.00
64095;BME280;50353;51.420;5.682;2024-01-25T07:31:34;102731.03;;;3.30;100.00
64095;BME280;50353;51.420;5.682;2024-01-25T07:34:00;102742.38;;;3.64;100.00
64095;BME280;50353;51.420;5.682;2024-01-25T07:36:25;102743.22;;;3.57;100.00
64095;BME280;50353;51.420;5.682;2024-01-25T07:38:50;102738.00;;;3.79;100.00
64095;BME280;50353;51.420;5.682;2024-01-25T07:41:16;102736.25;;;3.82;100.00
64095;BME280;50353;51.420;5.682;2024-01-25T07:43:41;102747.56;;;4.09;100.00
64095;BME280;50353;51.420;5.682;2024-01-25T07:46:08;102756.28;;;4.08;100.00
64095;BME280;50353;51.420;5.682;2024-01-25T07:48:33;102754.53;;;4.02;100.00
64095;BME280;50353;51.420;5.682;2024-01-25T07:50:59;102754.53;;;4.04;100.00
64095;BME280;50353;51.420;5.682;2024-01-25T07:53:24;102750.16;;;4.07;100.00
64095;BME280;50353;51.420;5.682;2024-01-25T07:55:50;102760.66;;;3.89;100.00
64095;BME280;50353;51.420;5.682;2024-01-25T07:58:15;102752.84;;;3.63;100.00
64095;BME280;50353;51.420;5.682;2024-01-25T08:00:41;102762.41;;;3.82;100.00
64095;BME280;50353;51.420;5.682;2024-01-25T08:03:07;102774.63;;;3.83;100.00
64095;BME280;50353;51.420;5.682;2024-01-25T08:05:33;102762.34;;;4.24;100.00
64095;BME280;50353;51.420;5.682;2024-01-25T08:07:58;102762.44;;;3.79;100.00
64095;BME280;50353;51.420;5.682;2024-01-25T08:10:23;102762.41;;;3.93;100.00
64095;BME280;50353;51.420;5.682;2024-01-25T08:12:49;102757.13;;;4.10;100.00
64095;BME280;50353;51.420;5.682;2024-01-25T08:15:14;102755.41;;;4.04;100.00
64095;BME280;50353;51.420;5.682;2024-01-25T08:17:39;102761.47;;;4.28;100.00
64095;BME280;50353;51.420;5.682;2024-01-25T08:20:05;102766.63;;;4.53;100.00
64095;BME280;50353;51.420;5.682;2024-01-25T08:22:34;102774.41;;;4.70;100.00
64095;BME280;50353;51.420;5.682;2024-01-25T08:25:02;102768.41;;;4.43;100.00
64095;BME280;50353;51.420;5.682;2024-01-25T08:27:29;102771.03;;;4.38;100.00
64095;BME280;50353;51.420;5.682;2024-01-25T08:29:55;102761.41;;;4.44;100.00
64095;BME280;50353;51.420;5.682;2024-01-25T08:32:20;102764.88;;;4.46;100.00
64095;BME280;50353;51.420;5.682;2024-01-25T08:34:45;102777.09;;;4.47;100.00
64095;BME280;50353;51.420;5.682;2024-01-25T08:37:11;102768.31;;;4.63;100.00
64095;BME280;50353;51.420;5.682;2024-01-25T08:39:36;102773.50;;;4.76;100.00
64095;BME280;50353;51.420;5.682;2024-01-25T08:42:03;102756.00;;;4.81;100.00
64095;BME280;50353;51.420;5.682;2024-01-25T08:44:31;102729.88;;;4.68;100.00
64095;BME280;50353;51.420;5.682;2024-01-25T08:46:56;102750.75;;;4.82;100.00
64095;BME280;50353;51.420;5.682;2024-01-25T08:49:22;102746.41;;;4.83;100.00
64095;BME280;50353;51.420;5.682;2024-01-25T08:51:47;102756.78;;;4.98;100.00
64095;BME280;50353;51.420;5.682;2024-01-25T08:54:13;102772.53;;;4.92;100.00
64095;BME280;50353;51.420;5.682;2024-01-25T08:56:38;102762.19;;;4.72;100.00
64095;BME280;50353;51.420;5.682;2024-01-25T08:59:04;102788.28;;;4.87;100.00
64095;BME280;50353;51.420;5.682;2024-01-25T09:01:29;102800.41;;;5.07;100.00
64095;BME280;50353;51.420;5.682;2024-01-25T09:03:55;102804.84;;;4.97;100.00
64095;BME280;50353;51.420;5.682;2024-01-25T09:06:22;102814.50;;;4.94;100.00
64095;BME280;50353;51.420;5.682;2024-01-25T09:08:51;102795.25;;;4.95;100.00
64095;BME280;50353;51.420;5.682;2024-01-25T09:11:16;102789.97;;;5.02;100.00
64095;BME280;50353;51.420;5.682;2024-01-25T09:13:41;102788.25;;;4.98;100.00
64095;BME280;50353;51.420;5.682;2024-01-25T09:16:10;102805.69;;;5.04;100.00
64095;BME280;50353;51.420;5.682;2024-01-25T09:18:35;102797.84;;;4.96;100.00
64095;BME280;50353;51.420;5.682;2024-01-25T09:21:00;102796.88;;;5.17;100.00
64095;BME280;50353;51.420;5.682;2024-01-25T09:23:26;102795.13;;;5.16;100.00
64095;BME280;50353;51.420;5.682;2024-01-25T09:25:51;102798.56;;;5.29;100.00
64095;BME280;50353;51.420;5.682;2024-01-25T09:28:24;102801.19;;;5.29;100.00
64095;BME280;50353;51.420;5.682;2024-01-25T09:30:54;102795.03;;;5.29;100.00
64095;BME280;50353;51.420;5.682;2024-01-25T09:33:20;102777.56;;;5.31;100.00
64095;BME280;50353;51.420;5.682;2024-01-25T09:35:45;102783.56;;;5.48;100.00
64095;BME280;50353;51.420;5.682;2024-01-25T09:38:12;102780.06;;;5.48;100.00
64095;BME280;50353;51.420;5.682;2024-01-25T09:40:38;102786.28;;;5.34;100.00
64095;BME280;50353;51.420;5.682;2024-01-25T09:43:04;102791.34;;;5.56;100.00
64095;BME280;50353;51.420;5.682;2024-01-25T09:45:30;102788.66;;;5.67;100.00
64095;BME280;50353;51.420;5.682;2024-01-25T09:47:56;102781.59;;;5.75;100.00
64095;BME280;50353;51.420;5.682;2024-01-25T09:50:22;102802.50;;;5.86;100.00
64095;BME280;50353;51.420;5.682;2024-01-25T09:52:54;102790.25;;;5.85;100.00
64095;BME280;50353;51.420;5.682;2024-01-25T09:55:24;102787.56;;;5.99;100.00
64095;BME280;50353;51.420;5.682;2024-01-25T09:57:53;102802.44;;;5.92;100.00
64095;BME280;50353;51.420;5.682;2024-01-25T10:00:20;102790.16;;;5.97;100.00
64095;BME280;50353;51.420;5.682;2024-01-25T10:02:50;102793.69;;;5.98;100.00
64095;BME280;50353;51.420;5.682;2024-01-25T10:05:19;102795.97;;;6.32;100.00
64095;BME280;50353;51.420;5.682;2024-01-25T10:07:45;102788.97;;;6.31;100.00
64095;BME280;50353;51.420;5.682;2024-01-25T10:10:12;102780.31;;;6.22;100.00
64095;BME280;50353;51.420;5.682;2024-01-25T10:12:43;102777.75;;;6.18;100.00
64095;BME280;50353;51.420;5.682;2024-01-25T10:15:09;102775.84;;;6.31;100.00
64095;BME280;50353;51.420;5.682;2024-01-25T10:17:35;102774.88;;;6.39;100.00
64095;BME280;50353;51.420;5.682;2024-01-25T10:20:05;102761.63;;;6.47;100.00
64095;BME280;50353;51.420;5.682;2024-01-25T10:22:35;102759.06;;;6.44;100.00
64095;BME280;50353;51.420;5.682;2024-01-25T10:25:01;102751.88;;;6.60;100.00
64095;BME280;50353;51.420;5.682;2024-01-25T10:27:27;102764.63;;;6.88;100.00
64095;BME280;50353;51.420;5.682;2024-01-25T10:29:53;102749.22;;;6.62;100.00
64095;BME280;50353;51.420;5.682;2024-01-25T10:32:18;102763.88;;;6.80;100.00
64095;BME280;50353;51.420;5.682;2024-01-25T10:34:45;102745.41;;;6.86;100.00
64095;BME280;50353;51.420;5.682;2024-01-25T10:37:13;102739.06;;;6.98;100.00
64095;BME280;50353;51.420;5.682;2024-01-25T10:39:39;102741.50;;;7.11;100.00
64095;BME280;50353;51.420;5.682;2024-01-25T10:42:06;102740.47;;;7.22;100.00
64095;BME280;50353;51.420;5.682;2024-01-25T10:44:31;102741.13;;;7.35;100.00
64095;BME280;50353;51.420;5.682;2024-01-25T10:46:57;102744.97;;;7.15;100.00
64095;BME280;50353;51.420;5.682;2024-01-25T10:49:24;102723.69;;;7.29;100.00
64095;BME280;50353;51.420;5.682;2024-01-25T10:51:49;102721.78;;;7.40;100.00
64095;BME280;50353;51.420;5.682;2024-01-25T10:54:16;102733.81;;;7.54;100.00
64095;BME280;50353;51.420;5.682;2024-01-25T10:56:42;102732.97;;;7.53;100.00
64095;BME280;50353;51.420;5.682;2024-01-25T10:59:08;102720.81;;;7.46;100.00
64095;BME280;50353;51.420;5.682;2024-01-25T11:01:35;102728.41;;;7.63;100.00
64095;BME280;50353;51.420;5.682;2024-01-25T11:04:01;102711.53;;;7.75;100.00
64095;BME280;50353;51.420;5.682;2024-01-25T11:06:31;102704.50;;;7.75;100.00
64095;BME280;50353;51.420;5.682;2024-01-25T11:09:06;102708.25;;;7.60;100.00
64095;BME280;50353;51.420;5.682;2024-01-25T11:11:32;102722.03;;;7.76;100.00
64095;BME280;50353;51.420;5.682;2024-01-25T11:13:58;102713.00;;;7.90;100.00
64095;BME280;50353;51.420;5.682;2024-01-25T11:16:35;102713.25;;;7.77;100.00
64095;BME280;50353;51.420;5.682;2024-01-25T11:19:00;102712.28;;;7.82;100.00
64095;BME280;50353;51.420;5.682;2024-01-25T11:21:45;102698.97;;;7.91;100.00
64095;BME280;50353;51.420;5.682;2024-01-25T11:24:15;102676.22;;;7.85;100.00
64095;BME280;50353;51.420;5.682;2024-01-25T11:26:44;102679.66;;;7.89;100.00
64095;BME280;50353;51.420;5.682;2024-01-25T11:29:15;102660.09;;;7.57;100.00
64095;BME280;50353;51.420;5.682;2024-01-25T11:31:46;102664.91;;;7.82;100.00
64095;BME280;50353;51.420;5.682;2024-01-25T11:34:13;102670.84;;;7.91;100.00
64095;BME280;50353;51.420;5.682;2024-01-25T11:36:39;102667.50;;;7.83;100.00
64095;BME280;50353;51.420;5.682;2024-01-25T11:39:05;102655.31;;;7.77;100.00
64095;BME280;50353;51.420;5.682;2024-01-25T11:41:32;102651.09;;;7.70;100.00
64095;BME280;50353;51.420;5.682;2024-01-25T11:43:58;102654.84;;;7.57;100.00
64095;BME280;50353;51.420;5.682;2024-01-25T11:46:24;102666.13;;;7.62;100.00
64095;BME280;50353;51.420;5.682;2024-01-25T11:48:51;102666.06;;;7.67;100.00
64095;BME280;50353;51.420;5.682;2024-01-25T11:51:16;102668.56;;;7.74;100.00
64095;BME280;50353;51.420;5.682;2024-01-25T11:53:42;102681.59;;;7.81;100.00
64095;BME280;50353;51.420;5.682;2024-01-25T11:56:12;102655.28;;;7.79;100.00
64095;BME280;50353;51.420;5.682;2024-01-25T11:58:39;102648.41;;;7.72;100.00
64095;BME280;50353;51.420;5.682;2024-01-25T12:01:05;102646.22;;;7.47;100.00
64095;BME280;50353;51.420;5.682;2024-01-25T12:03:34;102670.72;;;7.51;100.00
64095;BME280;50353;51.420;5.682;2024-01-25T12:06:00;102677.09;;;7.86;100.00
64095;BME280;50353;51.420;5.682;2024-01-25T12:08:25;102661.25;;;7.89;100.00
64095;BME280;50353;51.420;5.682;2024-01-25T12:11:02;102637.84;;;7.73;100.00
64095;BME280;50353;51.420;5.682;2024-01-25T12:13:28;102642.16;;;7.77;100.00
64095;BME280;50353;51.420;5.682;2024-01-25T12:15:56;102623.44;;;7.91;100.00
64095;BME280;50353;51.420;5.682;2024-01-25T12:18:22;102635.50;;;8.03;100.00
64095;BME280;50353;51.420;5.682;2024-01-25T12:20:47;102638.41;;;7.91;100.00
64095;BME280;50353;51.420;5.682;2024-01-25T12:23:13;102617.25;;;7.94;100.00
64095;BME280;50353;51.420;5.682;2024-01-25T12:25:39;102608.66;;;7.86;100.00
64095;BME280;50353;51.420;5.682;2024-01-25T12:28:06;102618.34;;;7.84;100.00
64095;BME280;50353;51.420;5.682;2024-01-25T12:30:31;102604.22;;;7.88;100.00
64095;BME280;50353;51.420;5.682;2024-01-25T12:32:56;102589.38;;;7.84;100.00
64095;BME280;50353;51.420;5.682;2024-01-25T12:35:21;102574.25;;;7.95;100.00
64095;BME280;50353;51.420;5.682;2024-01-25T12:37:47;102559.78;;;8.13;100.00
64095;BME280;50353;51.420;5.682;2024-01-25T12:40:12;102585.13;;;7.76;100.00
64095;BME280;50353;51.420;5.682;2024-01-25T12:42:38;102592.59;;;7.98;100.00
64095;BME280;50353;51.420;5.682;2024-01-25T12:45:04;102593.19;;;8.11;100.00